Terminal Aerodrome Forecast
Issued by NWS Tuscon, AZ

Home | Current Version | Previous Version | Text Only | Print | Product List | Glossary On
Versions: 1 2 3 4 5 6 7 8 9 10 11 12 13 14 15 16
000
FTUS45 KTWC 261740
TAFDUG
TAF
KDUG 261740Z 2618/2718 28016G25KT P6SM BKN050 BKN080
     FM261900 29025G35KT P6SM BKN050 BKN080
     FM270200 28012G18KT P6SM FEW060 SCT090
     FM270500 35008KT P6SM SKC
     FM271000 VRB03KT P6SM SKC=

USA.gov is the U.S. government's official web portal to all federal, state and local government web resources and services.